Time;durP1;ratioP1;P1;durP2;ratioP2;P2;SDS_P1;SDS_P2;PMS_P1;PMS_P2;Temp;Humidity;BMP_temperature;BMP_pressure;BME280_temperature;BME280_humidity;BME280_pressure;Samples;Min_cycle;Max_cycle;Signal;HPM_P1;HPM_P2
2022/05/19 00:00:21;;;;;;;52.38;28.58;;;;;;;;;;5075840;28;20064;-66
2022/05/19 00:02:47;;;;;;;43.50;28.27;;;;;;;;;;5089943;28;20047;-66
2022/05/19 00:05:13;;;;;;;48.53;28.85;;;;;;;;;;5056296;28;20076;-67
2022/05/19 00:07:41;;;;;;;47.65;29.33;;;;;;;;;;5049777;28;20131;-66
2022/05/19 00:10:07;;;;;;;43.47;29.20;;;;;;;;;;5060417;28;20056;-68
2022/05/19 00:12:33;;;;;;;48.72;30.60;;;;;;;;;;5089721;28;20149;-67
2022/05/19 00:14:59;;;;;;;43.22;29.50;;;;;;;;;;5057030;28;20048;-66
2022/05/19 00:17:25;;;;;;;51.80;29.23;;;;;;;;;;5062182;28;20111;-66
2022/05/19 00:19:52;;;;;;;42.78;28.70;;;;;;;;;;5062864;28;20044;-67
2022/05/19 00:22:18;;;;;;;44.50;29.88;;;;;;;;;;5068730;28;20047;-67
2022/05/19 00:24:44;;;;;;;49.10;29.50;;;;;;;;;;5065392;28;20045;-67
2022/05/19 00:27:10;;;;;;;44.15;29.83;;;;;;;;;;5049243;28;20171;-67
2022/05/19 00:29:36;;;;;;;46.67;29.90;;;;;;;;;;5061540;28;20048;-67
2022/05/19 00:32:03;;;;;;;43.20;30.45;;;;;;;;;;5067571;28;20516;-66
2022/05/19 00:34:29;;;;;;;49.13;30.92;;;;;;;;;;5076880;28;20518;-67
2022/05/19 00:36:59;;;;;;;43.00;30.25;;;;;;;;;;5063443;28;20045;-66
2022/05/19 00:39:25;;;;;;;42.97;29.85;;;;;;;;;;5067977;28;20052;-67
2022/05/19 00:42:43;;;;;;;44.20;28.50;;;;;;;;;;5082422;28;20047;-66
2022/05/19 00:44:37;;;;;;;47.75;30.52;;;;;;;;;;5068957;28;20140;-67
2022/05/19 00:47:03;;;;;;;44.78;30.25;;;;;;;;;;5075082;28;20066;-66
2022/05/19 00:49:29;;;;;;;;;;;;;;;;;;5089167;28;20113;-67
2022/05/19 00:52:00;;;;;;;45.50;31.27;;;;;;;;;;5089196;28;19924;-67
2022/05/19 00:54:28;;;;;;;46.17;31.58;;;;;;;;;;5078844;28;20190;-67
2022/05/19 00:57:05;;;;;;;49.28;32.63;;;;;;;;;;5074282;28;20143;-67
2022/05/19 00:59:36;;;;;;;52.45;32.72;;;;;;;;;;5088575;28;20048;-67
2022/05/19 01:02:04;;;;;;;50.35;32.67;;;;;;;;;;5087103;28;20070;-67
2022/05/19 01:04:44;;;;;;;50.25;33.67;;;;;;;;;;5084208;28;20669;-67
2022/05/19 01:07:14;;;;;;;50.53;34.35;;;;;;;;;;5078057;28;20084;-67
2022/05/19 01:09:40;;;;;;;45.72;33.45;;;;;;;;;;5072806;28;20061;-67
2022/05/19 01:12:06;;;;;;;;;;;;;;;;;;5068686;28;20134;-67
2022/05/19 01:14:32;;;;;;;48.83;35.33;;;;;;;;;;5049781;28;20086;-67
2022/05/19 01:16:59;;;;;;;53.10;36.85;;;;;;;;;;5064190;28;20060;-67
2022/05/19 01:19:43;;;;;;;54.58;37.00;;;;;;;;;;5067800;28;20125;-67
2022/05/19 01:22:18;;;;;;;49.53;36.38;;;;;;;;;;5068027;28;20040;-67
2022/05/19 01:24:50;;;;;;;52.35;36.85;;;;;;;;;;5068242;28;20080;-67
2022/05/19 01:27:16;;;;;;;60.00;40.20;;;;;;;;;;5059807;28;20565;-67
2022/05/19 01:29:42;;;;;;;;;;;;;;;;;;5068566;28;20124;-67
2022/05/19 01:32:22;;;;;;;57.75;42.42;;;;;;;;;;5068118;28;20007;-66
2022/05/19 01:34:48;;;;;;;57.28;42.53;;;;;;;;;;5068203;28;20040;-67
2022/05/19 01:37:14;;;;;;;56.08;41.85;;;;;;;;;;5064578;28;20128;-67
2022/05/19 01:39:40;;;;;;;60.10;44.15;;;;;;;;;;5070963;28;20048;-67
2022/05/19 01:42:38;;;;;;;59.42;42.95;;;;;;;;;;5077047;28;20044;-67
2022/05/19 01:45:04;;;;;;;55.03;41.17;;;;;;;;;;5032536;28;20249;-67
2022/05/19 01:47:36;;;;;;;60.25;42.83;;;;;;;;;;5067617;28;20219;-67
2022/05/19 01:50:14;;;;;;;62.42;40.92;;;;;;;;;;5067710;28;20056;-67
2022/05/19 01:52:47;;;;;;;59.63;42.85;;;;;;;;;;5047647;28;20102;-67
2022/05/19 01:55:19;;;;;;;63.00;43.20;;;;;;;;;;5047050;28;20468;-67
2022/05/19 01:57:52;;;;;;;56.50;40.83;;;;;;;;;;5077566;28;20040;-68
2022/05/19 02:00:20;;;;;;;60.15;43.22;;;;;;;;;;5056071;28;20522;-68
2022/05/19 02:02:57;;;;;;;60.63;44.58;;;;;;;;;;5088046;28;20071;-67
2022/05/19 02:05:42;;;;;;;58.92;42.58;;;;;;;;;;5068932;28;20041;-67
2022/05/19 02:08:10;;;;;;;58.15;43.97;;;;;;;;;;5047164;28;20044;-66
2022/05/19 02:10:37;;;;;;;63.60;44.85;;;;;;;;;;5078531;28;20071;-68
2022/05/19 02:13:04;;;;;;;64.22;46.92;;;;;;;;;;5067602;28;20179;-67
2022/05/19 02:15:34;;;;;;;59.72;44.85;;;;;;;;;;5062366;28;20044;-67
2022/05/19 02:18:00;;;;;;;69.63;48.80;;;;;;;;;;5086408;28;20491;-68
2022/05/19 02:20:28;;;;;;;71.07;52.00;;;;;;;;;;5073714;28;20330;-68
2022/05/19 02:22:54;;;;;;;76.40;56.53;;;;;;;;;;5068632;28;20048;-68
2022/05/19 02:25:28;;;;;;;83.80;59.42;;;;;;;;;;5077816;28;20040;-69
2022/05/19 02:28:00;;;;;;;77.85;56.45;;;;;;;;;;5052470;28;20037;-67
2022/05/19 02:30:28;;;;;;;77.63;57.88;;;;;;;;;;5051672;28;20118;-68
2022/05/19 02:32:54;;;;;;;83.53;59.95;;;;;;;;;;5051110;28;20148;-67
2022/05/19 02:35:21;;;;;;;83.65;62.25;;;;;;;;;;5051175;28;20412;-68
2022/05/19 02:37:47;;;;;;;86.53;62.40;;;;;;;;;;5066826;28;20063;-67
2022/05/19 02:40:13;;;;;;;;;;;;;;;;;;5069362;28;20064;-68
2022/05/19 02:42:39;;;;;;;90.95;64.38;;;;;;;;;;5070441;28;19921;-68
2022/05/19 02:45:06;;;;;;;88.07;64.00;;;;;;;;;;5052633;28;20125;-69
2022/05/19 02:47:32;;;;;;;;;;;;;;;;;;5067248;28;20437;-67
2022/05/19 02:49:58;;;;;;;88.80;63.58;;;;;;;;;;5088099;28;19976;-66
2022/05/19 02:52:24;;;;;;;89.75;63.50;;;;;;;;;;5090851;28;20206;-67
2022/05/19 02:54:50;;;;;;;86.63;60.33;;;;;;;;;;5074287;28;20044;-68
2022/05/19 02:57:17;;;;;;;83.63;61.97;;;;;;;;;;5078075;28;20398;-67
2022/05/19 02:59:43;;;;;;;;;;;;;;;;;;5071190;28;20052;-67
2022/05/19 03:02:09;;;;;;;86.20;60.25;;;;;;;;;;5086387;28;20068;-67
2022/05/19 03:04:35;;;;;;;;;;;;;;;;;;5084032;28;20193;-67
2022/05/19 03:07:01;;;;;;;80.15;56.67;;;;;;;;;;5050241;28;20350;-67
2022/05/19 03:09:27;;;;;;;81.03;57.90;;;;;;;;;;5074439;28;20191;-67
2022/05/19 03:11:53;;;;;;;81.28;56.80;;;;;;;;;;5072442;28;20104;-67
2022/05/19 03:14:19;;;;;;;83.72;59.00;;;;;;;;;;5088349;28;20099;-67
2022/05/19 03:16:45;;;;;;;73.28;54.40;;;;;;;;;;5050615;28;20123;-67
2022/05/19 03:19:12;;;;;;;77.00;56.28;;;;;;;;;;5080844;28;20051;-67
2022/05/19 03:21:38;;;;;;;77.00;55.00;;;;;;;;;;5089915;28;20051;-66
2022/05/19 03:24:04;;;;;;;;;;;;;;;;;;5065893;28;20353;-66
2022/05/19 03:26:30;;;;;;;84.60;57.45;;;;;;;;;;5070152;28;19931;-67
2022/05/19 03:28:56;;;;;;;77.70;55.42;;;;;;;;;;5039656;28;20144;-66
2022/05/19 03:31:22;;;;;;;74.18;55.38;;;;;;;;;;5073797;28;20047;-65
2022/05/19 03:33:48;;;;;;;83.13;54.70;;;;;;;;;;5089316;28;20224;-66
2022/05/19 03:36:14;;;;;;;87.30;55.75;;;;;;;;;;5076638;28;20072;-65
2022/05/19 03:38:41;;;;;;;82.03;56.58;;;;;;;;;;5048878;28;20500;-66
2022/05/19 03:41:07;;;;;;;82.25;54.70;;;;;;;;;;5087006;28;20069;-66
2022/05/19 03:43:33;;;;;;;77.03;53.70;;;;;;;;;;5089141;28;20075;-66
2022/05/19 03:46:00;;;;;;;84.22;55.88;;;;;;;;;;5087117;28;20635;-67
2022/05/19 03:48:26;;;;;;;84.00;58.22;;;;;;;;;;5056142;28;20114;-64
2022/05/19 03:50:52;;;;;;;80.53;56.40;;;;;;;;;;5074710;28;20040;-66
2022/05/19 03:53:18;;;;;;;83.07;57.65;;;;;;;;;;5088156;28;20066;-66
2022/05/19 03:55:45;;;;;;;80.28;56.70;;;;;;;;;;5069219;28;20051;-67
2022/05/19 03:58:11;;;;;;;79.72;56.53;;;;;;;;;;5065227;28;20417;-66
2022/05/19 04:00:37;;;;;;;;;;;;;;;;;;5060680;28;20146;-66
2022/05/19 04:03:03;;;;;;;82.20;55.67;;;;;;;;;;5086148;28;19983;-66
2022/05/19 04:05:29;;;;;;;;;;;;;;;;;;5088487;28;20130;-66
2022/05/19 04:07:56;;;;;;;76.70;54.53;;;;;;;;;;5077650;28;20027;-66
2022/05/19 04:10:22;;;;;;;;;;;;;;;;;;5056246;28;20049;-66
2022/05/19 04:12:48;;;;;;;89.55;55.60;;;;;;;;;;5069444;28;19927;-66
2022/05/19 04:15:14;;;;;;;74.03;54.47;;;;;;;;;;5082447;28;20043;-66
2022/05/19 04:17:40;;;;;;;;;;;;;;;;;;5087677;28;20326;-66
2022/05/19 04:20:08;;;;;;;78.07;53.97;;;;;;;;;;5052170;28;19935;-66
2022/05/19 04:22:34;;;;;;;77.22;54.28;;;;;;;;;;5062006;28;20087;-66
2022/05/19 04:25:00;;;;;;;;;;;;;;;;;;5067871;28;20048;-66
2022/05/19 04:27:29;;;;;;;86.30;53.08;;;;;;;;;;5082451;28;20011;-66
2022/05/19 04:29:56;;;;;;;83.55;55.00;;;;;;;;;;5069770;28;20094;-65
2022/05/19 04:32:22;;;;;;;74.82;51.30;;;;;;;;;;5067241;28;20040;-65
2022/05/19 04:34:48;;;;;;;78.00;53.78;;;;;;;;;;5066811;28;20041;-65
2022/05/19 04:37:14;;;;;;;77.20;53.95;;;;;;;;;;5080981;28;20498;-67
2022/05/19 04:39:40;;;;;;;73.90;53.45;;;;;;;;;;5078448;28;20060;-66
2022/05/19 04:42:10;;;;;;;76.35;54.28;;;;;;;;;;5067421;28;20124;-65
2022/05/19 04:44:37;;;;;;;81.93;57.47;;;;;;;;;;5067324;28;20127;-65
2022/05/19 04:47:03;;;;;;;84.05;59.67;;;;;;;;;;5068881;28;20032;-65
2022/05/19 04:49:30;;;;;;;84.22;60.75;;;;;;;;;;5062659;28;20043;-65
2022/05/19 04:51:56;;;;;;;86.68;58.67;;;;;;;;;;5051153;28;20060;-65
2022/05/19 04:54:22;;;;;;;87.95;59.38;;;;;;;;;;5047061;28;20517;-65
2022/05/19 04:56:48;;;;;;;;;;;;;;;;;;5029156;28;20101;-65
2022/05/19 04:59:14;;;;;;;92.22;60.28;;;;;;;;;;5031554;28;20656;-65
2022/05/19 05:01:40;;;;;;;;;;;;;;;;;;5063461;28;20045;-65
2022/05/19 05:04:06;;;;;;;87.47;59.97;;;;;;;;;;5046542;28;19921;-65
2022/05/19 05:06:32;;;;;;;82.38;59.58;;;;;;;;;;5046728;28;20067;-66
2022/05/19 05:08:58;;;;;;;88.25;61.33;;;;;;;;;;5046217;28;20559;-65
2022/05/19 05:11:25;;;;;;;92.30;61.50;;;;;;;;;;5060742;28;20413;-65
2022/05/19 05:13:51;;;;;;;90.40;61.35;;;;;;;;;;5056783;28;20063;-65
2022/05/19 05:16:17;;;;;;;85.85;59.45;;;;;;;;;;5046603;28;20040;-65
2022/05/19 05:18:43;;;;;;;89.55;60.33;;;;;;;;;;5046411;28;20052;-65
2022/05/19 05:21:13;;;;;;;87.28;60.25;;;;;;;;;;5058018;28;20055;-64
2022/05/19 05:23:39;;;;;;;85.28;57.53;;;;;;;;;;5048543;28;20083;-65
2022/05/19 05:26:06;;;;;;;81.70;56.55;;;;;;;;;;5055288;28;20113;-67
2022/05/19 05:28:33;;;;;;;75.93;53.28;;;;;;;;;;5068330;28;20397;-66
2022/05/19 05:30:59;;;;;;;76.47;53.90;;;;;;;;;;5081695;28;20434;-67
2022/05/19 05:33:25;;;;;;;;;;;;;;;;;;5059373;28;20064;-66
2022/05/19 05:35:51;;;;;;;74.85;53.67;;;;;;;;;;5071719;28;19919;-67
2022/05/19 05:38:17;;;;;;;;;;;;;;;;;;5086376;28;20119;-67
2022/05/19 05:40:43;;;;;;;72.22;49.88;;;;;;;;;;5086824;28;20057;-67
2022/05/19 05:43:14;;;;;;;73.28;50.20;;;;;;;;;;5067373;28;20052;-67
2022/05/19 05:45:43;;;;;;;71.75;50.28;;;;;;;;;;5051510;28;20044;-67
2022/05/19 05:48:09;;;;;;;70.10;49.22;;;;;;;;;;5070814;28;20126;-66
2022/05/19 05:50:35;;;;;;;83.13;50.17;;;;;;;;;;5083396;28;20052;-67
2022/05/19 05:53:02;;;;;;;68.32;49.45;;;;;;;;;;5071157;28;20048;-67
2022/05/19 05:55:27;;;;;;;;;;;;;;;;;;5041413;28;20044;-66
2022/05/19 05:57:54;;;;;;;69.90;49.28;;;;;;;;;;5080487;28;20543;-67
2022/05/19 06:00:20;;;;;;;69.28;48.92;;;;;;;;;;5083870;28;20056;-67
2022/05/19 06:02:46;;;;;;;61.85;45.35;;;;;;;;;;5080225;28;20070;-65
2022/05/19 06:05:13;;;;;;;61.65;45.05;;;;;;;;;;5074869;28;20451;-66
2022/05/19 06:07:39;;;;;;;59.03;43.47;;;;;;;;;;5076039;28;20075;-65
2022/05/19 06:10:06;;;;;;;55.95;41.88;;;;;;;;;;5078430;28;20163;-66
2022/05/19 06:12:32;;;;;;;56.42;40.13;;;;;;;;;;5068223;28;20055;-67
2022/05/19 06:14:58;;;;;;;;;;;;;;;;;;5088481;28;20089;-67
2022/05/19 06:17:25;;;;;;;51.10;37.88;;;;;;;;;;5087550;28;20002;-67
2022/05/19 06:19:51;;;;;;;50.92;37.55;;;;;;;;;;5087097;28;20513;-67
2022/05/19 06:22:18;;;;;;;54.88;36.38;;;;;;;;;;5087154;28;20511;-66
2022/05/19 06:24:44;;;;;;;55.17;36.55;;;;;;;;;;5088940;28;20428;-67
2022/05/19 06:27:10;;;;;;;47.13;35.95;;;;;;;;;;5084156;28;20367;-66
2022/05/19 06:29:37;;;;;;;51.10;34.55;;;;;;;;;;5084147;28;20053;-66
2022/05/19 06:32:03;;;;;;;46.92;33.83;;;;;;;;;;5039924;28;20063;-66
2022/05/19 06:34:29;;;;;;;50.30;34.33;;;;;;;;;;5069836;28;20143;-67
2022/05/19 06:36:56;;;;;;;48.08;34.13;;;;;;;;;;5075687;28;20044;-66
2022/05/19 06:39:22;;;;;;;46.67;34.10;;;;;;;;;;5051743;28;20110;-66
2022/05/19 06:42:00;;;;;;;;;;;;;;;;;;5078596;28;20085;-67
2022/05/19 06:44:37;;;;;;;49.03;33.40;;;;;;;;;;5082061;28;19969;-68
2022/05/19 06:47:06;;;;;;;47.05;32.97;;;;;;;;;;5049357;28;20065;-66
2022/05/19 06:49:32;;;;;;;45.50;34.03;;;;;;;;;;5065913;28;20040;-67
2022/05/19 06:51:58;;;;;;;;;;;;;;;;;;5035633;28;20388;-68
2022/05/19 06:54:24;;;;;;;45.22;34.15;;;;;;;;;;5080597;28;19989;-67
2022/05/19 06:56:50;;;;;;;45.03;33.10;;;;;;;;;;5077938;28;20098;-67
2022/05/19 06:59:16;;;;;;;46.72;32.22;;;;;;;;;;5071986;28;20130;-67
2022/05/19 07:01:44;;;;;;;48.63;31.17;;;;;;;;;;5067802;28;20052;-66
2022/05/19 07:04:10;;;;;;;42.78;30.38;;;;;;;;;;5060941;28;20045;-67
2022/05/19 07:06:36;;;;;;;45.63;33.35;;;;;;;;;;5057679;28;20044;-66
2022/05/19 07:09:02;;;;;;;41.15;29.95;;;;;;;;;;5044207;28;20148;-66
2022/05/19 07:11:28;;;;;;;;;;;;;;;;;;5064827;28;20123;-66
2022/05/19 07:13:56;;;;;;;43.75;32.75;;;;;;;;;;5089547;28;20339;-66
2022/05/19 07:16:22;;;;;;;47.20;34.42;;;;;;;;;;5074202;28;20036;-67
2022/05/19 07:18:48;;;;;;;46.53;34.08;;;;;;;;;;5066007;28;20126;-67
2022/05/19 07:21:16;;;;;;;51.47;35.08;;;;;;;;;;5048634;28;20513;-68
2022/05/19 07:23:42;;;;;;;58.28;36.08;;;;;;;;;;5049769;28;20082;-67
2022/05/19 07:26:08;;;;;;;;;;;;;;;;;;5056225;28;20055;-67
2022/05/19 07:28:35;;;;;;;44.78;36.03;;;;;;;;;;5064919;28;19995;-67
2022/05/19 07:31:01;;;;;;;49.17;35.70;;;;;;;;;;5069181;28;20163;-68
2022/05/19 07:33:28;;;;;;;;;;;;;;;;;;5069697;28;20124;-69
2022/05/19 07:35:55;;;;;;;48.50;35.97;;;;;;;;;;5069523;28;19920;-68
2022/05/19 07:38:21;;;;;;;48.90;37.25;;;;;;;;;;5053810;28;20052;-69
2022/05/19 07:40:49;;;;;;;52.00;39.15;;;;;;;;;;5048749;28;20045;-68
2022/05/19 07:46:01;;;;;;;45.80;31.77;;;;;;;;;;5048246;28;20113;-68
2022/05/19 07:48:27;;;;;;;;;;;;;;;;;;5031860;28;20049;-68
2022/05/19 07:50:53;;;;;;;50.50;37.42;;;;;;;;;;5049648;28;20332;-68
2022/05/19 07:53:19;;;;;;;51.97;37.55;;;;;;;;;;5048738;28;20049;-69
2022/05/19 07:55:45;;;;;;;;;;;;;;;;;;5051137;28;20097;-68
2022/05/19 07:58:11;;;;;;;41.10;30.05;;;;;;;;;;5048404;28;19920;-68
2022/05/19 08:00:38;;;;;;;43.58;30.35;;;;;;;;;;5048745;28;20057;-67
2022/05/19 08:03:03;;;;;;;;;;;;;;;;;;5030920;28;20411;-67
2022/05/19 08:05:29;;;;;;;42.75;22.70;;;;;;;;;;5048637;28;19978;-68
2022/05/19 08:07:56;;;;;;;42.63;23.58;;;;;;;;;;5064863;28;20103;-67
2022/05/19 08:10:24;;;;;;;40.17;24.60;;;;;;;;;;5068145;28;20056;-68
2022/05/19 08:15:37;;;;;;;32.25;16.65;;;;;;;;;;5024531;28;20052;-68
2022/05/19 08:18:19;;;;;;;32.38;17.77;;;;;;;;;;5048324;28;20044;-68
2022/05/19 08:20:53;;;;;;;35.80;18.95;;;;;;;;;;5060839;28;20059;-66
2022/05/19 08:23:24;;;;;;;32.95;18.95;;;;;;;;;;5067700;28;20072;-68
2022/05/19 08:25:50;;;;;;;31.67;17.35;;;;;;;;;;5067799;28;20112;-69
2022/05/19 08:28:18;;;;;;;33.75;17.80;;;;;;;;;;5065758;28;20052;-68
2022/05/19 08:30:47;;;;;;;27.88;16.20;;;;;;;;;;5049892;28;20048;-67
2022/05/19 08:33:13;;;;;;;24.83;13.85;;;;;;;;;;5066322;28;20395;-68
2022/05/19 08:35:40;;;;;;;28.67;13.73;;;;;;;;;;5056105;28;20090;-68
2022/05/19 08:38:06;;;;;;;24.58;12.88;;;;;;;;;;5058481;28;20044;-67
2022/05/19 08:40:52;;;;;;;25.90;12.80;;;;;;;;;;5058063;28;20064;-68
2022/05/19 08:43:21;;;;;;;29.67;13.10;;;;;;;;;;5053708;28;20136;-67
2022/05/19 08:45:50;;;;;;;24.85;12.52;;;;;;;;;;5050109;28;20683;-68
2022/05/19 08:48:21;;;;;;;26.05;13.65;;;;;;;;;;5066745;28;20044;-67
2022/05/19 08:50:51;;;;;;;28.23;14.68;;;;;;;;;;5048361;28;20084;-67
2022/05/19 08:53:18;;;;;;;29.48;14.90;;;;;;;;;;5072262;28;20143;-68
2022/05/19 08:55:47;;;;;;;24.92;13.40;;;;;;;;;;5054846;28;20053;-68
2022/05/19 08:58:27;;;;;;;23.02;12.10;;;;;;;;;;5029125;28;20092;-68
2022/05/19 09:00:55;;;;;;;19.90;11.73;;;;;;;;;;5048184;28;20075;-69
2022/05/19 09:03:30;;;;;;;22.85;11.95;;;;;;;;;;5046906;28;20500;-67
2022/05/19 09:05:56;;;;;;;24.85;12.50;;;;;;;;;;5046168;28;20048;-67
2022/05/19 09:08:24;;;;;;;25.45;11.38;;;;;;;;;;5046393;28;20069;-67
2022/05/19 09:10:59;;;;;;;24.73;11.07;;;;;;;;;;5059213;28;20136;-66
2022/05/19 09:13:42;;;;;;;21.40;10.10;;;;;;;;;;5053645;28;20097;-69
2022/05/19 09:16:20;;;;;;;21.05;9.40;;;;;;;;;;5055730;28;20052;-66
2022/05/19 09:19:03;;;;;;;19.23;10.70;;;;;;;;;;5059623;28;20049;-66
2022/05/19 09:21:29;;;;;;;19.77;10.38;;;;;;;;;;5042150;28;20055;-67
2022/05/19 09:23:55;;;;;;;;;;;;;;;;;;5065433;28;20051;-68
2022/05/19 09:26:41;;;;;;;22.13;10.65;;;;;;;;;;5081610;28;19928;-70
2022/05/19 09:29:12;;;;;;;18.77;10.25;;;;;;;;;;5076348;28;20153;-67
2022/05/19 09:31:41;;;;;;;20.08;10.27;;;;;;;;;;5086430;28;20044;-68
2022/05/19 09:34:08;;;;;;;19.98;9.65;;;;;;;;;;5048781;28;20068;-69
2022/05/19 09:36:41;;;;;;;18.75;9.80;;;;;;;;;;5047740;28;20103;-70
2022/05/19 09:39:16;;;;;;;18.88;9.75;;;;;;;;;;5048036;28;20527;-70
2022/05/19 09:41:46;;;;;;;20.42;9.75;;;;;;;;;;5048334;28;20041;-69
2022/05/19 09:44:14;;;;;;;20.05;9.52;;;;;;;;;;5047992;28;20051;-69
2022/05/19 09:46:41;;;;;;;16.98;8.40;;;;;;;;;;5029860;28;20465;-71
2022/05/19 09:49:25;;;;;;;17.15;10.13;;;;;;;;;;5047891;28;20055;-69
2022/05/19 09:51:52;;;;;;;18.35;10.00;;;;;;;;;;5046934;28;20045;-68
2022/05/19 09:54:18;;;;;;;21.10;9.52;;;;;;;;;;5051589;28;20041;-69
2022/05/19 09:56:48;;;;;;;18.38;9.25;;;;;;;;;;5067768;28;20456;-70
2022/05/19 09:59:16;;;;;;;16.20;9.45;;;;;;;;;;5067754;28;20124;-69
2022/05/19 10:01:45;;;;;;;17.25;8.88;;;;;;;;;;5049343;28;20040;-69
2022/05/19 10:04:32;;;;;;;17.55;9.27;;;;;;;;;;5060809;28;20202;-68
2022/05/19 10:07:12;;;;;;;17.15;8.82;;;;;;;;;;5029786;28;20120;-69
2022/05/19 10:09:42;;;;;;;17.80;7.53;;;;;;;;;;5047196;28;20057;-69
2022/05/19 10:12:09;;;;;;;17.40;8.18;;;;;;;;;;5047518;28;20074;-69
2022/05/19 10:14:35;;;;;;;16.98;8.05;;;;;;;;;;5047540;28;20052;-71
2022/05/19 10:17:01;;;;;;;;;;;;;;;;;;5048785;28;20128;-70
2022/05/19 10:19:30;;;;;;;18.05;8.40;;;;;;;;;;5047488;28;20150;-68
2022/05/19 10:22:07;;;;;;;15.73;7.55;;;;;;;;;;5048078;28;20334;-71
2022/05/19 10:24:39;;;;;;;16.27;7.10;;;;;;;;;;5045577;28;20056;-67
2022/05/19 10:33:04;;;;;;;14.07;6.60;;;;;;;;;;5067495;28;20058;-68
2022/05/19 10:35:36;;;;;;;15.27;6.70;;;;;;;;;;5048652;28;20448;-68
2022/05/19 10:38:21;;;;;;;14.38;6.88;;;;;;;;;;5063395;28;20059;-69
2022/05/19 10:41:06;;;;;;;14.88;6.35;;;;;;;;;;5048105;28;20045;-67
2022/05/19 10:43:34;;;;;;;22.20;6.28;;;;;;;;;;5047182;28;20045;-68
2022/05/19 10:46:01;;;;;;;15.20;6.68;;;;;;;;;;5051644;28;20068;-68
2022/05/19 10:48:44;;;;;;;16.35;7.32;;;;;;;;;;5051640;28;20174;-68
2022/05/19 10:51:29;;;;;;;13.13;6.43;;;;;;;;;;5032665;28;20053;-69
2022/05/19 10:54:03;;;;;;;12.32;6.75;;;;;;;;;;5050688;28;20115;-67
2022/05/19 10:56:42;;;;;;;15.48;7.35;;;;;;;;;;5050697;28;20205;-67
2022/05/19 10:59:14;;;;;;;14.43;6.47;;;;;;;;;;5051148;28;20067;-67
2022/05/19 11:01:49;;;;;;;13.00;6.50;;;;;;;;;;5050754;28;20094;-68
2022/05/19 11:04:34;;;;;;;14.85;6.30;;;;;;;;;;5033308;28;20051;-69
2022/05/19 11:07:18;;;;;;;16.02;8.32;;;;;;;;;;5049206;28;20047;-67
2022/05/19 11:09:45;;;;;;;15.10;7.32;;;;;;;;;;5049375;28;20534;-68
2022/05/19 11:12:11;;;;;;;17.40;7.53;;;;;;;;;;5050522;28;20072;-69
2022/05/19 11:14:47;;;;;;;18.42;11.15;;;;;;;;;;5050464;28;20041;-69
2022/05/19 11:17:26;;;;;;;18.60;11.88;;;;;;;;;;5050241;28;20407;-68
2022/05/19 11:19:55;;;;;;;19.85;10.95;;;;;;;;;;5050086;28;20170;-70
2022/05/19 11:22:24;;;;;;;18.52;10.80;;;;;;;;;;5033410;28;20186;-69
2022/05/19 11:28:06;;;;;;;17.45;10.25;;;;;;;;;;5050398;28;20140;-70
2022/05/19 11:30:42;;;;;;;21.77;10.90;;;;;;;;;;5049575;28;20097;-70
2022/05/19 11:33:10;;;;;;;20.42;10.98;;;;;;;;;;5051230;28;20140;-70
2022/05/19 11:35:41;;;;;;;25.65;13.27;;;;;;;;;;5058127;28;20269;-70
2022/05/19 11:38:26;;;;;;;17.65;10.60;;;;;;;;;;5068298;28;20064;-70
2022/05/19 11:41:05;;;;;;;19.38;12.32;;;;;;;;;;5064843;28;20472;-68
2022/05/19 11:43:34;;;;;;;22.98;12.65;;;;;;;;;;5079895;28;20055;-68
2022/05/19 11:46:12;;;;;;;19.60;11.82;;;;;;;;;;5080015;28;20048;-71
2022/05/19 11:57:16;;;;;;;16.38;10.68;;;;;;;;;;5048704;28;20101;-68
2022/05/19 11:59:47;;;;;;;17.83;11.93;;;;;;;;;;5063545;28;20359;-71
2022/05/19 12:02:15;;;;;;;18.88;13.27;;;;;;;;;;5084905;28;20190;-71
2022/05/19 12:04:42;;;;;;;20.92;13.05;;;;;;;;;;5071099;28;20124;-72
2022/05/19 12:07:11;;;;;;;22.25;15.32;;;;;;;;;;5086918;28;20492;-70
2022/05/19 12:09:43;;;;;;;22.17;14.13;;;;;;;;;;5076829;28;20052;-69
2022/05/19 12:12:25;;;;;;;21.70;13.90;;;;;;;;;;5090439;28;20151;-70
2022/05/19 12:15:05;;;;;;;21.38;12.93;;;;;;;;;;5088573;28;20147;-72
2022/05/19 12:17:33;;;;;;;20.83;12.20;;;;;;;;;;5074052;28;20113;-68
2022/05/19 12:20:03;;;;;;;22.95;13.18;;;;;;;;;;5045725;28;20037;-69
2022/05/19 12:22:29;;;;;;;21.35;15.13;;;;;;;;;;5068509;28;20071;-69
2022/05/19 12:25:08;;;;;;;27.20;15.32;;;;;;;;;;5049826;28;20044;-70
2022/05/19 12:27:36;;;;;;;23.70;15.25;;;;;;;;;;5069009;28;20056;-72
2022/05/19 12:33:11;;;;;;;25.05;15.90;;;;;;;;;;5069183;28;20049;-70
2022/05/19 12:35:41;;;;;;;23.45;17.02;;;;;;;;;;5067863;28;20051;-71
2022/05/19 12:38:27;;;;;;;23.52;16.90;;;;;;;;;;5050328;28;20433;-69
2022/05/19 12:40:54;;;;;;;23.58;15.55;;;;;;;;;;5072548;28;20048;-70
2022/05/19 12:43:21;;;;;;;20.88;13.95;;;;;;;;;;5072869;28;20078;-70
2022/05/19 12:45:54;;;;;;;22.50;14.60;;;;;;;;;;5067958;28;20048;-68
2022/05/19 12:48:25;;;;;;;23.88;16.05;;;;;;;;;;5071408;28;20048;-68
2022/05/19 12:51:11;;;;;;;28.35;16.95;;;;;;;;;;5076215;28;20396;-70
2022/05/19 12:53:41;;;;;;;25.73;17.58;;;;;;;;;;5056761;28;20099;-69
2022/05/19 12:56:07;;;;;;;31.08;16.98;;;;;;;;;;5082949;28;20127;-69
2022/05/19 12:58:41;;;;;;;32.33;19.05;;;;;;;;;;5074740;28;20402;-67
2022/05/19 13:01:26;;;;;;;31.90;16.98;;;;;;;;;;5049060;28;20048;-73
2022/05/19 13:04:01;;;;;;;26.48;16.35;;;;;;;;;;5075627;28;20060;-66
2022/05/19 13:06:27;;;;;;;14.95;8.07;;;;;;;;;;5083982;28;20217;-66
2022/05/19 13:08:54;;;;;;;13.48;5.68;;;;;;;;;;5069344;28;20411;-67
2022/05/19 13:11:29;;;;;;;16.67;5.70;;;;;;;;;;5082184;28;20383;-67
2022/05/19 13:14:01;;;;;;;13.43;6.20;;;;;;;;;;5047239;28;20076;-68
2022/05/19 13:16:28;;;;;;;15.38;6.95;;;;;;;;;;5046812;28;20060;-66
2022/05/19 13:18:59;;;;;;;16.63;6.85;;;;;;;;;;5079882;28;20083;-69
2022/05/19 13:21:29;;;;;;;20.50;7.95;;;;;;;;;;5084951;28;20059;-66
2022/05/19 13:23:55;;;;;;;18.77;8.75;;;;;;;;;;5088344;28;20048;-67
2022/05/19 13:26:28;;;;;;;20.52;9.77;;;;;;;;;;5080749;28;20440;-69
2022/05/19 13:32:04;;;;;;;24.85;13.85;;;;;;;;;;5001623;28;20136;-71
2022/05/19 13:34:39;;;;;;;27.90;13.68;;;;;;;;;;5006320;28;20122;-70
2022/05/19 13:37:06;;;;;;;21.40;14.25;;;;;;;;;;5035091;28;20048;-69
2022/05/19 13:39:33;;;;;;;23.00;14.98;;;;;;;;;;5043426;28;20064;-68
2022/05/19 13:42:01;;;;;;;31.10;17.63;;;;;;;;;;5074751;28;20074;-69
2022/05/19 13:44:32;;;;;;;27.20;16.17;;;;;;;;;;5057961;28;20053;-69
2022/05/19 13:46:59;;;;;;;28.98;17.17;;;;;;;;;;5067249;28;20068;-68
2022/05/19 13:49:27;;;;;;;34.13;18.35;;;;;;;;;;5058152;28;20062;-67
2022/05/19 13:51:55;;;;;;;38.53;18.17;;;;;;;;;;5075638;28;20104;-67
2022/05/19 13:54:31;;;;;;;30.70;19.38;;;;;;;;;;5061782;28;20318;-67
2022/05/19 13:56:58;;;;;;;28.63;18.65;;;;;;;;;;5065730;28;20044;-66
2022/05/19 13:59:29;;;;;;;34.58;18.80;;;;;;;;;;5073407;28;20467;-66
2022/05/19 14:01:59;;;;;;;34.55;18.90;;;;;;;;;;5078936;28;20044;-66
2022/05/19 14:04:25;;;;;;;31.25;17.52;;;;;;;;;;5069560;28;20051;-65
2022/05/19 14:06:52;;;;;;;36.92;20.83;;;;;;;;;;5064414;28;20037;-65
2022/05/19 14:09:24;;;;;;;32.70;18.65;;;;;;;;;;5067532;28;20135;-65
2022/05/19 14:12:09;;;;;;;34.25;22.02;;;;;;;;;;5044936;28;20392;-65
2022/05/19 14:14:35;;;;;;;34.28;17.67;;;;;;;;;;5063027;28;20444;-65
2022/05/19 14:17:01;;;;;;;37.22;19.05;;;;;;;;;;5073259;28;20552;-66
2022/05/19 14:19:28;;;;;;;;;;;;;;;;;;5060675;28;20067;-65
2022/05/19 14:21:54;;;;;;;31.95;17.08;;;;;;;;;;5062080;28;19928;-65
2022/05/19 14:24:20;;;;;;;31.30;17.13;;;;;;;;;;5064484;28;20536;-65
2022/05/19 14:26:48;;;;;;;31.85;17.55;;;;;;;;;;5060134;28;20514;-65
2022/05/19 14:29:22;;;;;;;29.38;16.33;;;;;;;;;;5070630;28;20081;-65
2022/05/19 14:31:49;;;;;;;26.65;17.60;;;;;;;;;;5070765;28;20053;-65
2022/05/19 14:34:21;;;;;;;23.27;14.93;;;;;;;;;;5062691;28;20125;-65
2022/05/19 14:36:53;;;;;;;28.17;16.80;;;;;;;;;;5061241;28;20049;-64
2022/05/19 14:39:40;;;;;;;26.42;16.13;;;;;;;;;;5050602;28;20068;-64
2022/05/19 14:44:56;;;;;;;30.52;17.65;;;;;;;;;;5069255;28;20513;-65
2022/05/19 14:47:23;;;;;;;28.92;16.52;;;;;;;;;;5069095;28;20043;-66
2022/05/19 14:49:56;;;;;;;32.13;18.95;;;;;;;;;;5083385;28;20081;-66
2022/05/19 14:52:26;;;;;;;25.33;16.83;;;;;;;;;;5065836;28;20045;-65
2022/05/19 14:54:54;;;;;;;28.52;17.45;;;;;;;;;;5072366;28;20040;-66
2022/05/19 14:57:22;;;;;;;27.10;16.90;;;;;;;;;;5069937;28;20063;-66
2022/05/19 14:59:55;;;;;;;29.45;17.55;;;;;;;;;;5070196;28;20053;-65
2022/05/19 15:02:22;;;;;;;28.42;18.10;;;;;;;;;;5086998;28;20162;-66
2022/05/19 15:04:49;;;;;;;33.40;21.77;;;;;;;;;;5064881;28;20055;-66
2022/05/19 15:07:20;;;;;;;35.00;22.38;;;;;;;;;;5074963;28;20127;-66
2022/05/19 15:09:46;;;;;;;44.28;27.52;;;;;;;;;;5056780;28;20061;-66
2022/05/19 15:12:12;;;;;;;;;;;;;;;;;;5055579;28;20483;-66
2022/05/19 15:14:38;;;;;;;34.90;23.58;;;;;;;;;;5040679;28;19921;-66